• Join FlightAware (Why Join?)
  • Login
  • US Flag 
04:05PM EDT


 

Airport Tracker/Info


-or-


 

Live Flight TrackerFlight Track Log ✈ SKW7367 ✈ 27-Nov-2013 ✈ KDTW - KAPN

Flight Track Log - Related Links

Times and Time Zones

All times are in EST time to prevent confusion due to time zone crossing. See the SKW7367 flight status page for this flight to view local times or setup timezone preferences in your user account.

Time Position Orientation Groundspeed Altitude Reporting Facility
EST Latitude Longitude Course Direction KTS MPH feet Rate Location/Type
03:57PM 42.2194 -83.3578 North 149 171 1,300  Level Cleveland Center
03:57PM 42.2514 -83.3508 North 195 224 3,300 3,060 Climbing Cleveland Center
03:58PM 42.3169 -83.3433 North 240 276 6,700 2,820 Climbing Cleveland Center
03:59PM 42.3161 -83.3394 106° East 233 268 6,600 3,060 Descending Cleveland Center
04:00PM 42.3831 -83.3372 North 239 275 10,300 3,000 Climbing Cleveland Center
04:01PM 42.4550 -83.3428 357° North 257 296 12,800 2,280 Climbing Cleveland Center
04:02PM 42.5469 -83.3478 358° North 277 319 15,100 1,020 Climbing Cleveland Center
04:03PM 42.6297 -83.3511 358° North 294 338 15,000 -60 Descending Cleveland Center
04:04PM 42.7083 -83.3544 358° North 287 330 15,000  Level Cleveland Center
04:05PM 42.7800 -83.3578 358° North 262 302 15,100  Climbing Cleveland Center
04:06PM 42.8528 -83.3617 358° North 262 302 15,100  Level Cleveland Center
04:07PM 42.9269 -83.3664 357° North 266 306 15,100  Level Cleveland Center
04:08PM 43.0153 -83.3661 360° North 266 306 15,100  Level Cleveland Center
04:09PM 43.0878 -83.3689 358° North 263 303 15,100  Level Cleveland Center
04:10PM 43.1333 -83.4506 307° West 261 300 15,100  Level Cleveland Center
04:11PM 43.1808 -83.5261 311° West 264 304 15,100  Level Cleveland Center
04:12PM 43.2275 -83.6000 311° West 260 299 15,100  Level Cleveland Center
04:13PM 43.2858 -83.6908 311° West 262 302 15,100  Level Cleveland Center
04:14PM 43.3344 -83.7642 312° West 262 302 15,100  Level Cleveland Center
04:15PM 43.3811 -83.8392 311° West 259 298 15,100  Level Cleveland Center
04:16PM 43.4211 -83.9036 311° West 263 303 15,100 -60 Level Minneapolis Center
04:17PM 43.4689 -83.9789 311° West 262 302 15,000 -60 Descending Minneapolis Center
04:18PM 43.5172 -84.0536 312° West 262 302 15,000  Level Minneapolis Center
04:19PM 43.5881 -84.0592 357° North 267 307 15,000  Level Minneapolis Center
04:20PM 43.6611 -84.0336 14° North 271 312 15,000  Level Minneapolis Center
04:21PM 43.7486 -84.0039 14° North 272 313 15,000 -720 Level Minneapolis Center
04:22PM 43.8194 -83.9681 20° North 273 314 13,600 -1,080 Descending Minneapolis Center
04:23PM 43.8794 -83.9394 19° North 248 285 12,800 -780 Descending Minneapolis Center
04:24PM 43.9325 -83.9167 17° North 214 246 12,000 -840 Descending Minneapolis Center
04:25PM 43.9917 -83.8906 18° North 204 235 11,100 -480 Descending Minneapolis Center
04:26PM 44.0531 -83.8633 18° North 214 246 11,000 -60 Descending Minneapolis Center
04:27PM 44.1108 -83.8386 17° North 220 253 11,000  Level Minneapolis Center
04:28PM 44.1703 -83.8131 17° North 211 243 11,000 -300 Level Minneapolis Center
04:29PM 44.2228 -83.7911 17° North 200 230 10,400 -1,020 Descending Minneapolis Center
04:30PM 44.2778 -83.7681 17° North 194 223 9,000 -1,020 Descending Minneapolis Center
04:31PM 44.3261 -83.7483 16° North 185 213 8,300 -720 Descending Minneapolis Center
04:32PM 44.3786 -83.7303 14° North 182 209 7,600 -720 Descending Minneapolis Center
04:34PM 44.4253 -83.7156 13° North 175 201 6,900 -660 Descending Minneapolis Center
04:35PM 44.4750 -83.6964 15° North 172 198 6,300 -540 Descending Minneapolis Center
04:36PM 44.5178 -83.6778 17° North 166 191 5,900 -480 Descending Minneapolis Center
04:37PM 44.5661 -83.6564 17° North 169 194 5,400 -660 Descending Minneapolis Center
04:38PM 44.6128 -83.6378 16° North 173 199 4,600 -660 Descending Minneapolis Center
04:39PM 44.6650 -83.6161 16° North 181 208 4,100 -540 Descending Minneapolis Center
04:40PM 44.7100 -83.5975 16° North 163 188 3,600 -420 Descending Minneapolis Center
04:41PM 44.7497 -83.5789 18° North 155 178 3,300 -180 Descending Minneapolis Center
04:42PM 44.7925 -83.5603 17° North 151 174 3,300 -180 Level Minneapolis Center
04:43PM 44.8325 -83.5600 360° North 147 169 3,000 -300 Descending Minneapolis Center
04:44PM 44.8814 -83.5608 359° North 158 182 2,800 -120 Descending Minneapolis Center
04:45PM 44.9250 -83.5606 360° North 160 184 2,800  Level Minneapolis Center
04:46PM 44.9642 -83.5608 360° North 141 162 2,800 -300 Level Minneapolis Center
04:47PM 44.9958 -83.5608 360° North 124 143 2,200 -660 Descending Minneapolis Center
04:48PM 45.0286 -83.5611 360° North 113 130 1,500 -720 Descending Minneapolis Center
04:49PM 45.0611 -83.5611 360° North 117 135 800 -420 Descending Minneapolis Center
04:50PM 45.0964 -83.5614 360° North 119 137 700 -120 Descending Minneapolis Center